createdAt,value
2018-07-23T00:00:41.695Z,89.18
2018-07-23T00:03:11.059Z,88.38
2018-07-23T00:05:40.426Z,88.07
2018-07-23T00:08:09.819Z,88.62
2018-07-23T00:10:39.193Z,88.67
2018-07-23T00:13:08.552Z,88.05
2018-07-23T00:15:37.924Z,88.70
2018-07-23T00:18:08.562Z,88.12
2018-07-23T00:20:37.936Z,87.79
2018-07-23T00:23:07.564Z,88.07
2018-07-23T00:25:36.972Z,88.36
2018-07-23T00:28:06.451Z,88.51
2018-07-23T00:30:35.807Z,88.31
2018-07-23T00:33:05.171Z,88.28
2018-07-23T00:35:34.548Z,88.27
2018-07-23T00:38:03.915Z,88.45
2018-07-23T00:40:33.288Z,88.69
2018-07-23T00:43:02.662Z,88.51
2018-07-23T00:45:32.036Z,88.43
2018-07-23T00:48:01.143Z,89.01
2018-07-23T00:50:30.520Z,88.24
2018-07-23T00:52:59.884Z,88.24
2018-07-23T00:55:29.720Z,88.32
2018-07-23T00:57:59.083Z,88.98
2018-07-23T01:00:28.463Z,88.78
2018-07-23T01:03:01.904Z,88.61
2018-07-23T01:05:31.300Z,89.12
2018-07-23T01:08:00.643Z,88.85
2018-07-23T01:10:29.753Z,88.44
2018-07-23T01:12:59.148Z,88.99
2018-07-23T01:15:28.247Z,88.42
2018-07-23T01:17:57.619Z,88.37
2018-07-23T01:20:26.979Z,89.57
2018-07-23T01:22:56.344Z,88.81
2018-07-23T01:25:25.451Z,89.18
2018-07-23T01:27:54.859Z,88.29
2018-07-23T01:30:24.234Z,88.33
2018-07-23T01:32:53.628Z,88.60
2018-07-23T01:35:22.980Z,88.87
2018-07-23T01:37:52.347Z,88.63
2018-07-23T01:40:21.715Z,88.21
2018-07-23T01:42:51.092Z,88.45
2018-07-23T01:45:20.455Z,88.56
2018-07-23T01:47:49.822Z,89.10
2018-07-23T01:50:19.192Z,88.72
2018-07-23T01:52:48.555Z,88.67
2018-07-23T01:55:17.662Z,89.25
2018-07-23T01:57:47.043Z,88.61
2018-07-23T02:00:16.450Z,88.70
2018-07-23T02:02:45.849Z,88.28
2018-07-23T02:05:14.963Z,88.63
2018-07-23T02:07:44.361Z,88.81
2018-07-23T02:10:13.607Z,88.20
2018-07-23T02:12:42.995Z,89.09
2018-07-23T02:15:12.391Z,88.51
2018-07-23T02:17:41.793Z,88.81
2018-07-23T02:20:11.179Z,88.95
2018-07-23T02:22:40.604Z,89.08
2018-07-23T02:25:09.984Z,89.31
2018-07-23T02:27:39.376Z,89.07
2018-07-23T02:30:08.885Z,88.65
2018-07-23T02:32:38.292Z,88.97
2018-07-23T02:35:07.681Z,89.62
2018-07-23T02:37:37.088Z,89.32
2018-07-23T02:40:06.605Z,89.30
2018-07-23T02:42:36.011Z,89.49
2018-07-23T02:45:05.452Z,88.98
2018-07-23T02:47:34.844Z,89.33
2018-07-23T02:50:04.267Z,88.70
2018-07-23T02:52:33.696Z,89.19
2018-07-23T02:55:02.874Z,89.09
2018-07-23T02:57:32.300Z,88.83
2018-07-23T03:00:01.723Z,89.12
2018-07-23T03:02:31.348Z,89.68
2018-07-23T03:05:00.749Z,89.47
2018-07-23T03:07:30.145Z,89.39
2018-07-23T03:09:59.539Z,89.58
2018-07-23T03:12:28.918Z,89.88
2018-07-23T03:14:58.336Z,89.85
2018-07-23T03:17:27.744Z,90.73
2018-07-23T03:19:57.167Z,90.42
2018-07-23T03:22:26.600Z,89.90
2018-07-23T03:24:56.011Z,89.24
2018-07-23T03:27:25.452Z,89.13
2018-07-23T03:29:54.851Z,89.64
2018-07-23T03:32:24.268Z,88.95
2018-07-23T03:34:53.650Z,89.70
2018-07-23T03:37:23.052Z,89.52
2018-07-23T03:39:52.459Z,89.89
2018-07-23T03:42:21.881Z,89.55
2018-07-23T03:44:51.279Z,89.38
2018-07-23T03:47:20.671Z,89.47
2018-07-23T03:49:50.081Z,89.95
2018-07-23T03:52:19.475Z,89.61
2018-07-23T03:54:48.884Z,89.65
2018-07-23T03:57:18.309Z,90.14
2018-07-23T03:59:47.744Z,89.80
2018-07-23T04:02:17.136Z,90.20
2018-07-23T04:04:46.557Z,90.11
2018-07-23T04:07:15.687Z,89.89
2018-07-23T04:09:45.559Z,90.14
2018-07-23T04:12:14.958Z,89.81
2018-07-23T04:14:44.358Z,89.75
2018-07-23T04:17:13.756Z,89.71
2018-07-23T04:19:43.156Z,89.52
2018-07-23T04:22:12.575Z,90.33
2018-07-23T04:24:41.711Z,89.67
2018-07-23T04:27:11.113Z,90.40
2018-07-23T04:29:40.528Z,89.81
2018-07-23T04:32:09.928Z,90.74
2018-07-23T04:34:39.353Z,90.11
2018-07-23T04:37:08.759Z,90.75
2018-07-23T04:39:38.168Z,90.86
2018-07-23T04:42:09.279Z,90.57
2018-07-23T04:44:38.691Z,90.58
2018-07-23T04:47:08.112Z,90.73
2018-07-23T04:49:37.536Z,90.79
2018-07-23T04:52:06.972Z,90.04
2018-07-23T04:54:36.424Z,90.88
2018-07-23T04:57:05.825Z,90.45
2018-07-23T04:59:35.228Z,91.16
2018-07-23T05:02:04.640Z,90.89
2018-07-23T05:04:34.036Z,90.12
2018-07-23T05:07:03.449Z,91.00
2018-07-23T05:09:32.587Z,90.15
2018-07-23T05:12:02.011Z,90.96
2018-07-23T05:14:31.441Z,89.90
2018-07-23T05:17:00.862Z,90.28
2018-07-23T05:19:30.274Z,90.11
2018-07-23T05:21:59.677Z,90.32
2018-07-23T05:24:29.099Z,90.19
2018-07-23T05:26:58.567Z,90.44
2018-07-23T05:29:27.982Z,89.95
2018-07-23T05:31:57.409Z,90.20
2018-07-23T05:34:26.812Z,90.81
2018-07-23T05:36:56.239Z,90.53
2018-07-23T05:39:25.636Z,89.97
2018-07-23T05:41:55.067Z,89.93
2018-07-23T05:44:24.463Z,89.70
2018-07-23T05:46:53.867Z,89.43
2018-07-23T05:49:23.269Z,89.36
2018-07-23T05:51:52.670Z,89.53
2018-07-23T05:54:22.082Z,88.83
2018-07-23T05:56:51.484Z,88.96
2018-07-23T05:59:21.027Z,89.28
2018-07-23T06:01:50.428Z,88.73
2018-07-23T06:04:19.826Z,88.13
2018-07-23T06:06:49.264Z,88.93
2018-07-23T06:09:18.334Z,88.08
2018-07-23T06:11:47.735Z,88.11
2018-07-23T06:14:17.121Z,87.78
2018-07-23T06:16:46.547Z,88.08
2018-07-23T06:19:15.942Z,87.03
2018-07-23T06:21:45.371Z,86.52
2018-07-23T06:24:14.784Z,85.94
2018-07-23T06:26:44.212Z,86.14
2018-07-23T06:29:13.611Z,86.08
2018-07-23T06:31:43.030Z,85.62
2018-07-23T06:34:12.411Z,85.34
2018-07-23T06:36:41.833Z,85.29
2018-07-23T06:39:11.810Z,85.48
2018-07-23T06:41:41.589Z,84.80
2018-07-23T06:44:10.992Z,84.87
2018-07-23T06:46:40.937Z,84.05
2018-07-23T06:49:10.276Z,84.58
2018-07-23T06:51:39.408Z,83.48
2018-07-23T06:54:09.347Z,83.49
2018-07-23T06:56:39.016Z,83.08
2018-07-23T06:59:08.425Z,82.92
2018-07-23T07:01:37.839Z,82.97
2018-07-23T07:04:07.236Z,82.96
2018-07-23T07:06:36.642Z,82.03
2018-07-23T07:09:09.510Z,82.25
2018-07-23T07:11:39.036Z,81.91
2018-07-23T07:14:08.927Z,82.30
2018-07-23T07:16:38.319Z,81.87
2018-07-23T07:19:07.729Z,81.27
2018-07-23T07:21:37.128Z,82.03
2018-07-23T07:24:06.556Z,81.63
2018-07-23T07:26:35.970Z,79.56
2018-07-23T07:29:05.376Z,79.37
2018-07-23T07:31:34.776Z,78.62
2018-07-23T07:34:04.216Z,76.98
2018-07-23T07:36:33.603Z,74.79
2018-07-23T07:39:02.996Z,74.90
2018-07-23T07:41:32.466Z,74.93
2018-07-23T07:44:01.861Z,74.33
2018-07-23T07:46:31.273Z,73.22
2018-07-23T07:49:00.639Z,72.87
2018-07-23T07:51:29.785Z,73.42
2018-07-23T07:53:59.188Z,73.69
2018-07-23T07:56:28.559Z,74.28
2018-07-23T07:58:57.975Z,73.71
2018-07-23T08:01:27.384Z,73.45
2018-07-23T08:03:56.776Z,72.39
2018-07-23T08:06:26.163Z,72.05
2018-07-23T08:08:55.569Z,72.61
2018-07-23T08:11:24.988Z,71.91
2018-07-23T08:13:54.404Z,71.35
2018-07-23T08:16:23.787Z,70.78
2018-07-23T08:18:53.250Z,71.17
2018-07-23T08:21:22.636Z,70.47
2018-07-23T08:23:52.045Z,71.29
2018-07-23T08:26:21.441Z,71.28
2018-07-23T08:28:50.851Z,70.64
2018-07-23T08:31:20.349Z,72.13
2018-07-23T08:33:49.761Z,69.68
2018-07-23T08:36:19.171Z,68.64
2018-07-23T08:38:48.322Z,69.01
2018-07-23T08:41:17.721Z,69.67
2018-07-23T08:43:47.117Z,70.35
2018-07-23T08:46:16.512Z,68.17
2018-07-23T08:48:45.904Z,69.41
2018-07-23T08:51:15.322Z,70.15
2018-07-23T08:53:44.741Z,68.80
2018-07-23T08:56:14.172Z,68.73
2018-07-23T08:58:43.532Z,67.79
2018-07-23T09:01:12.930Z,67.69
2018-07-23T09:03:42.317Z,67.57
2018-07-23T09:06:11.724Z,68.99
2018-07-23T09:08:41.169Z,67.61
2018-07-23T09:11:10.536Z,68.14
2018-07-23T09:13:39.976Z,69.71
2018-07-23T09:16:09.476Z,69.27
2018-07-23T09:18:38.864Z,65.06
2018-07-23T09:21:08.256Z,68.37
2018-07-23T09:23:37.729Z,62.46
2018-07-23T09:26:07.181Z,60.94
2018-07-23T09:28:36.564Z,62.24
2018-07-23T09:31:05.991Z,62.20
2018-07-23T09:33:35.377Z,64.24
2018-07-23T09:36:04.782Z,64.11
2018-07-23T09:38:34.178Z,65.03
2018-07-23T09:41:03.594Z,63.45
2018-07-23T09:43:33.003Z,63.36
2018-07-23T09:46:02.403Z,64.18
2018-07-23T09:48:31.795Z,61.34
2018-07-23T09:51:01.201Z,63.13
2018-07-23T09:53:30.595Z,61.20
2018-07-23T09:56:00.025Z,59.69
2018-07-23T09:58:29.453Z,59.84
2018-07-23T10:01:02.767Z,61.08
2018-07-23T10:06:00.611Z,60.17
2018-07-23T10:08:30.073Z,60.17
2018-07-23T10:10:59.485Z,60.33
2018-07-23T10:13:28.857Z,60.16
2018-07-23T10:15:58.264Z,59.12
2018-07-23T10:18:27.656Z,59.43
2018-07-23T10:20:57.072Z,58.88
2018-07-23T10:23:26.472Z,59.38
2018-07-23T10:25:55.884Z,58.92
2018-07-23T10:28:25.296Z,56.46
2018-07-23T10:30:54.689Z,56.31
2018-07-23T10:33:24.093Z,56.76
2018-07-23T10:35:53.500Z,56.28
2018-07-23T10:38:22.907Z,58.43
2018-07-23T10:40:52.283Z,56.98
2018-07-23T10:43:21.683Z,55.23
2018-07-23T10:45:51.103Z,55.31
2018-07-23T10:48:20.500Z,53.81
2018-07-23T10:50:49.917Z,55.34
2018-07-23T10:53:19.315Z,53.23
2018-07-23T10:55:48.724Z,53.83
2018-07-23T10:58:18.126Z,53.78
2018-07-23T11:00:47.529Z,54.52
2018-07-23T11:03:16.942Z,52.68
2018-07-23T11:05:46.383Z,53.87
2018-07-23T11:08:15.544Z,52.96
2018-07-23T11:10:44.952Z,53.49
2018-07-23T11:13:14.363Z,51.90
2018-07-23T11:15:43.773Z,55.46
2018-07-23T11:18:13.164Z,53.48
2018-07-23T11:20:42.561Z,53.45
2018-07-23T11:23:11.993Z,54.77
2018-07-23T11:25:41.393Z,56.59
2018-07-23T11:28:10.826Z,53.81
2018-07-23T11:30:40.227Z,52.24
2018-07-23T11:33:09.628Z,50.37
2018-07-23T11:35:39.030Z,52.02
2018-07-23T11:38:09.262Z,51.22
2018-07-23T11:40:38.652Z,52.27
2018-07-23T11:43:08.076Z,51.79
2018-07-23T11:45:37.469Z,51.63
2018-07-23T11:48:06.921Z,49.32
2018-07-23T11:50:36.327Z,47.33
2018-07-23T11:53:05.729Z,47.95
2018-07-23T11:55:35.136Z,49.33
2018-07-23T11:58:04.287Z,50.32
2018-07-23T12:00:33.681Z,50.51
2018-07-23T12:03:03.109Z,48.82
2018-07-23T12:05:32.517Z,49.13
2018-07-23T12:08:01.949Z,48.53
2018-07-23T12:10:31.365Z,48.72
2018-07-23T12:13:00.767Z,48.67
2018-07-23T12:15:30.164Z,48.17
2018-07-23T12:17:59.771Z,46.34
2018-07-23T12:20:29.155Z,45.20
2018-07-23T12:22:58.565Z,47.74
2018-07-23T12:25:27.702Z,45.46
2018-07-23T12:27:57.122Z,45.72
2018-07-23T12:30:26.543Z,47.65
2018-07-23T12:32:56.011Z,45.21
2018-07-23T12:35:25.481Z,43.68
2018-07-23T12:37:54.930Z,48.28
2018-07-23T12:40:24.711Z,44.93
2018-07-23T12:42:54.107Z,41.77
2018-07-23T12:45:23.503Z,44.12
2018-07-23T12:47:52.892Z,42.89
2018-07-23T12:50:22.301Z,43.25
2018-07-23T12:52:51.414Z,43.17
2018-07-23T12:55:20.814Z,42.51
2018-07-23T12:57:50.199Z,42.58
2018-07-23T13:00:19.339Z,43.71
2018-07-23T13:02:48.729Z,42.23
2018-07-23T13:05:18.144Z,41.85
2018-07-23T13:07:47.540Z,43.27
2018-07-23T13:10:16.950Z,41.31
2018-07-23T13:12:46.331Z,41.04
2018-07-23T13:15:15.752Z,47.54
2018-07-23T13:17:45.145Z,45.23
2018-07-23T13:20:14.544Z,43.27
2018-07-23T13:22:43.956Z,42.31
2018-07-23T13:25:13.360Z,42.39
2018-07-23T13:27:42.762Z,41.54
2018-07-23T13:30:12.157Z,43.40
2018-07-23T13:32:41.854Z,40.19
2018-07-23T13:35:11.272Z,41.05
2018-07-23T13:37:40.952Z,41.06
2018-07-23T13:40:10.486Z,41.13
2018-07-23T13:42:39.872Z,40.80
2018-07-23T13:45:09.288Z,39.67
2018-07-23T13:47:38.688Z,40.63
2018-07-23T13:50:09.391Z,40.91
2018-07-23T13:52:38.799Z,38.30
2018-07-23T13:55:08.237Z,38.67
2018-07-23T13:57:37.615Z,36.64
2018-07-23T14:00:07.827Z,35.66
2018-07-23T14:02:37.227Z,36.37
2018-07-23T14:05:06.762Z,37.18
2018-07-23T14:07:36.148Z,37.08
2018-07-23T14:10:06.028Z,36.83
2018-07-23T14:12:35.156Z,37.15
2018-07-23T14:15:04.850Z,36.04
2018-07-23T14:17:34.179Z,36.14
2018-07-23T14:20:03.587Z,36.29
2018-07-23T14:22:32.954Z,38.57
2018-07-23T14:25:02.352Z,38.72
2018-07-23T14:27:31.740Z,41.42
2018-07-23T14:30:00.888Z,40.95
2018-07-23T14:32:30.293Z,39.79
2018-07-23T14:34:59.704Z,39.12
2018-07-23T14:37:29.093Z,39.07
2018-07-23T14:39:58.517Z,38.95
2018-07-23T14:42:27.921Z,38.33
2018-07-23T14:44:57.333Z,39.91
2018-07-23T14:47:26.745Z,40.38
2018-07-23T14:49:56.191Z,41.45
2018-07-23T14:52:25.596Z,41.59
2018-07-23T14:54:54.992Z,43.03
2018-07-23T14:57:24.407Z,42.66
2018-07-23T14:59:53.825Z,42.01
2018-07-23T15:02:23.219Z,40.92
2018-07-23T15:04:52.649Z,39.76
2018-07-23T15:07:22.049Z,40.22
2018-07-23T15:09:51.439Z,39.79
2018-07-23T15:12:20.831Z,39.55
2018-07-23T15:14:50.230Z,39.66
2018-07-23T15:17:19.626Z,37.57
2018-07-23T15:19:49.044Z,40.18
2018-07-23T15:22:18.469Z,38.70
2018-07-23T15:24:47.855Z,39.40
2018-07-23T15:27:17.306Z,39.60
2018-07-23T15:29:46.673Z,39.53
2018-07-23T15:32:16.075Z,38.30
2018-07-23T15:34:45.467Z,38.64
2018-07-23T15:37:14.863Z,38.04
2018-07-23T15:39:44.240Z,38.54
2018-07-23T15:42:13.687Z,38.33
2018-07-23T15:44:43.453Z,38.26
2018-07-23T15:47:12.932Z,39.47
2018-07-23T15:49:42.347Z,39.96
2018-07-23T15:52:11.752Z,39.64
2018-07-23T15:54:41.151Z,39.19
2018-07-23T15:57:10.531Z,39.39
2018-07-23T15:59:39.916Z,39.13
2018-07-23T16:02:09.532Z,38.85
2018-07-23T16:04:38.663Z,38.84
2018-07-23T16:07:08.050Z,39.75
2018-07-23T16:09:37.427Z,39.09
2018-07-23T16:12:06.871Z,39.07
2018-07-23T16:14:36.258Z,39.58
2018-07-23T16:17:05.669Z,39.33
2018-07-23T16:19:35.065Z,39.95
2018-07-23T16:22:04.504Z,38.93
2018-07-23T16:24:33.843Z,39.35
2018-07-23T16:27:02.982Z,40.12
2018-07-23T16:29:32.353Z,39.20
2018-07-23T16:32:01.695Z,39.55
2018-07-23T16:34:31.107Z,39.10
2018-07-23T16:37:00.480Z,39.57
2018-07-23T16:39:29.839Z,39.32
2018-07-23T16:41:59.230Z,38.80
2018-07-23T16:44:28.603Z,38.39
2018-07-23T16:46:58.026Z,38.71
2018-07-23T16:49:27.376Z,39.45
2018-07-23T16:51:56.983Z,39.52
2018-07-23T16:54:26.381Z,40.45
2018-07-23T16:56:55.788Z,40.05
2018-07-23T16:59:25.206Z,41.37
2018-07-23T17:01:54.580Z,41.46
2018-07-23T17:04:23.730Z,41.54
2018-07-23T17:06:53.158Z,41.83
2018-07-23T17:09:22.499Z,41.47
2018-07-23T17:11:51.885Z,41.75
2018-07-23T17:14:21.091Z,40.96
2018-07-23T17:16:50.500Z,41.41
2018-07-23T17:19:19.884Z,41.54
2018-07-23T17:21:49.018Z,42.01
2018-07-23T17:24:18.395Z,41.88
2018-07-23T17:26:47.763Z,41.76
2018-07-23T17:29:16.890Z,42.32
2018-07-23T17:31:46.335Z,41.96
2018-07-23T17:34:15.704Z,42.15
2018-07-23T17:36:45.899Z,42.00
2018-07-23T17:39:15.019Z,42.69
2018-07-23T17:41:44.416Z,43.32
2018-07-23T17:44:13.799Z,42.66
2018-07-23T17:46:43.176Z,43.26
2018-07-23T17:49:12.566Z,43.38
2018-07-23T17:51:41.940Z,43.62
2018-07-23T17:54:11.604Z,44.23
2018-07-23T17:56:40.715Z,44.38
2018-07-23T17:59:10.100Z,44.14
2018-07-23T18:01:39.238Z,44.27
2018-07-23T18:04:09.352Z,44.34
2018-07-23T18:06:38.835Z,44.42
2018-07-23T18:09:10.811Z,44.19
2018-07-23T18:11:40.223Z,43.96
2018-07-23T18:14:09.997Z,43.82
2018-07-23T18:16:39.238Z,44.75
2018-07-23T18:19:08.654Z,45.02
2018-07-23T18:21:38.053Z,45.29
2018-07-23T18:24:07.509Z,45.19
2018-07-23T18:26:36.686Z,45.36
2018-07-23T18:29:06.128Z,45.04
2018-07-23T18:31:35.510Z,45.93
2018-07-23T18:34:04.916Z,45.36
2018-07-23T18:36:34.343Z,46.39
2018-07-23T18:39:03.784Z,46.11
2018-07-23T18:41:33.175Z,46.88
2018-07-23T18:44:02.573Z,50.15
2018-07-23T18:46:31.992Z,53.76
2018-07-23T18:49:44.899Z,55.68
2018-07-23T18:52:14.900Z,56.76
2018-07-23T18:54:45.750Z,56.62
2018-07-23T18:57:15.190Z,57.79
2018-07-23T18:59:44.678Z,59.42
2018-07-23T19:02:14.862Z,60.67
2018-07-23T19:04:44.254Z,60.42
2018-07-23T19:07:13.678Z,60.93
2018-07-23T19:09:43.210Z,61.56
2018-07-23T19:12:13.076Z,62.14
2018-07-23T19:14:42.479Z,62.31
2018-07-23T19:17:13.316Z,63.23
2018-07-23T19:19:42.719Z,63.72
2018-07-23T19:22:12.118Z,64.34
2018-07-23T19:24:41.535Z,64.02
2018-07-23T19:27:10.973Z,62.78
2018-07-23T19:29:40.308Z,63.15
2018-07-23T19:32:09.711Z,63.73
2018-07-23T19:34:38.810Z,64.61
2018-07-23T19:37:08.214Z,65.45
2018-07-23T19:39:37.603Z,66.06
2018-07-23T19:42:07.098Z,66.97
2018-07-23T19:44:36.500Z,67.52
2018-07-23T19:47:05.986Z,67.53
2018-07-23T19:49:35.376Z,69.63
2018-07-23T19:52:04.778Z,68.03
2018-07-23T19:54:34.198Z,68.57
2018-07-23T19:57:03.585Z,69.03
2018-07-23T19:59:32.993Z,68.87
2018-07-23T20:02:02.400Z,68.49
2018-07-23T20:04:31.783Z,68.74
2018-07-23T20:07:01.171Z,68.45
2018-07-23T20:09:30.548Z,68.95
2018-07-23T20:11:59.959Z,68.48
2018-07-23T20:14:29.336Z,68.75
2018-07-23T20:16:58.482Z,69.38
2018-07-23T20:19:27.878Z,69.96
2018-07-23T20:21:57.252Z,69.35
2018-07-23T20:24:26.645Z,69.38
2018-07-23T20:26:56.032Z,70.10
2018-07-23T20:29:25.163Z,70.25
2018-07-23T20:31:54.563Z,69.94
2018-07-23T20:34:23.963Z,70.61
2018-07-23T20:36:53.365Z,71.24
2018-07-23T20:39:22.752Z,76.96
2018-07-23T20:41:52.166Z,72.12
2018-07-23T20:44:21.384Z,72.69
2018-07-23T20:46:50.470Z,72.23
2018-07-23T20:49:19.864Z,72.60
2018-07-23T20:51:49.255Z,72.68
2018-07-23T20:54:18.657Z,72.10
2018-07-23T20:56:48.125Z,72.42
2018-07-23T20:59:17.431Z,72.81
2018-07-23T21:01:46.814Z,72.97
2018-07-23T21:04:16.208Z,72.36
2018-07-23T21:06:45.609Z,72.90
2018-07-23T21:09:15.012Z,73.05
2018-07-23T21:11:44.400Z,73.75
2018-07-23T21:14:13.783Z,73.28
2018-07-23T21:16:43.167Z,73.20
2018-07-23T21:19:12.559Z,74.28
2018-07-23T21:21:41.952Z,74.13
2018-07-23T21:24:11.352Z,74.63
2018-07-23T21:26:40.734Z,74.72
2018-07-23T21:29:10.135Z,74.61
2018-07-23T21:31:39.527Z,74.93
2018-07-23T21:34:08.947Z,74.82
2018-07-23T21:36:38.340Z,74.63
2018-07-23T21:39:09.660Z,75.42
2018-07-23T21:41:39.071Z,74.85
2018-07-23T21:44:09.555Z,74.92
2018-07-23T21:46:38.940Z,75.39
2018-07-23T21:49:08.328Z,75.71
2018-07-23T21:51:37.719Z,75.50
2018-07-23T21:54:07.354Z,75.87
2018-07-23T21:56:36.747Z,75.97
2018-07-23T21:59:06.148Z,76.04
2018-07-23T22:01:35.532Z,75.40
2018-07-23T22:04:04.928Z,75.48
2018-07-23T22:06:34.310Z,75.72
2018-07-23T22:09:03.923Z,75.43
2018-07-23T22:11:33.348Z,76.24
2018-07-23T22:14:02.730Z,76.55
2018-07-23T22:16:32.104Z,75.97
2018-07-23T22:19:01.497Z,77.07
2018-07-23T22:21:30.865Z,77.19
2018-07-23T22:24:00.416Z,77.12
2018-07-23T22:26:29.822Z,76.36
2018-07-23T22:28:59.206Z,76.36
2018-07-23T22:31:28.583Z,76.43
2018-07-23T22:33:57.975Z,76.88
2018-07-23T22:36:27.364Z,76.86
2018-07-23T22:38:56.739Z,76.45
2018-07-23T22:41:26.124Z,77.09
2018-07-23T22:43:55.516Z,76.76
2018-07-23T22:46:24.638Z,77.55
2018-07-23T22:48:54.015Z,77.67
2018-07-23T22:51:23.147Z,78.06
2018-07-23T22:53:52.528Z,78.73
2018-07-23T22:56:21.953Z,78.29
2018-07-23T22:58:51.332Z,78.72
2018-07-23T23:01:21.051Z,78.48
2018-07-23T23:03:50.434Z,78.05
2018-07-23T23:06:19.819Z,78.64
2018-07-23T23:08:48.944Z,78.55
2018-07-23T23:11:18.355Z,79.19
2018-07-23T23:13:47.730Z,78.61
2018-07-23T23:16:17.136Z,78.83
2018-07-23T23:18:46.504Z,79.30
2018-07-23T23:21:15.895Z,78.63
2018-07-23T23:23:45.255Z,77.98
2018-07-23T23:26:14.641Z,78.17
2018-07-23T23:28:43.754Z,79.02
2018-07-23T23:31:13.147Z,79.18
2018-07-23T23:33:42.524Z,78.92
2018-07-23T23:36:11.899Z,79.18
2018-07-23T23:38:41.340Z,79.69
2018-07-23T23:41:10.475Z,79.45
2018-07-23T23:43:39.895Z,79.73
2018-07-23T23:46:09.283Z,79.13
2018-07-23T23:48:38.666Z,79.93
2018-07-23T23:51:08.052Z,79.06
2018-07-23T23:53:37.431Z,79.59
2018-07-23T23:56:06.857Z,79.66
2018-07-23T23:58:36.231Z,78.87
